Time;durP1;ratioP1;P1;durP2;ratioP2;P2;SDS_P1;SDS_P2;PMS_P1;PMS_P2;Temp;Humidity;BMP_temperature;BMP_pressure;BME280_temperature;BME280_humidity;BME280_pressure;Samples;Min_cycle;Max_cycle;Signal;HPM_P1;HPM_P2
2023/07/31 00:01:18;;;;;;;2.27;2.10;;;;;;;;;;5115951;28;20203;-78
2023/07/31 00:03:46;;;;;;;7.33;1.77;;;;;;;;;;5116468;28;20677;-78
2023/07/31 00:06:13;;;;;;;2.37;1.87;;;;;;;;;;5115931;28;20623;-78
2023/07/31 00:08:39;;;;;;;2.30;2.10;;;;;;;;;;5116422;28;20546;-78
2023/07/31 00:11:06;;;;;;;2.30;2.07;;;;;;;;;;5116512;28;20196;-78
2023/07/31 00:13:34;;;;;;;2.30;2.10;;;;;;;;;;5115962;28;20195;-78
2023/07/31 00:16:01;;;;;;;1.90;1.80;;;;;;;;;;5115852;28;20191;-78
2023/07/31 00:18:28;;;;;;;4.13;1.80;;;;;;;;;;5115976;28;20611;-78
2023/07/31 00:20:54;;;;;;;2.00;1.90;;;;;;;;;;5115813;28;20195;-78
2023/07/31 00:23:21;;;;;;;1.77;1.63;;;;;;;;;;5116910;28;20200;-78
2023/07/31 00:25:48;;;;;;;2.73;1.80;;;;;;;;;;5116242;28;20199;-78
2023/07/31 00:28:15;;;;;;;1.90;1.80;;;;;;;;;;5115962;28;20191;-78
2023/07/31 00:30:43;;;;;;;2.40;2.00;;;;;;;;;;5116743;28;20586;-78
2023/07/31 00:33:10;;;;;;;2.33;2.13;;;;;;;;;;5115633;28;20203;-78
2023/07/31 00:35:36;;;;;;;1.60;1.50;;;;;;;;;;5115892;28;20206;-78
2023/07/31 00:38:03;;;;;;;2.00;1.90;;;;;;;;;;5115429;28;20583;-78
2023/07/31 00:40:30;;;;;;;1.60;1.50;;;;;;;;;;5115316;28;20565;-78
2023/07/31 00:42:57;;;;;;;2.07;1.97;;;;;;;;;;5116147;28;20649;-78
2023/07/31 00:45:26;;;;;;;2.07;1.70;;;;;;;;;;5115643;28;20677;-78
2023/07/31 00:47:55;;;;;;;2.30;2.00;;;;;;;;;;5115132;28;20260;-78
2023/07/31 00:50:23;;;;;;;1.97;1.77;;;;;;;;;;5115100;28;20548;-78
2023/07/31 00:52:50;;;;;;;2.30;2.10;;;;;;;;;;5115642;28;20223;-78
2023/07/31 00:55:17;;;;;;;4.23;1.60;;;;;;;;;;5115543;28;20199;-78
2023/07/31 00:57:45;;;;;;;1.93;1.83;;;;;;;;;;5115319;28;20218;-78
2023/07/31 01:00:13;;;;;;;1.80;1.70;;;;;;;;;;5114937;28;20742;-78
2023/07/31 01:02:39;;;;;;;2.53;2.10;;;;;;;;;;5115128;28;20202;-78
2023/07/31 01:05:08;;;;;;;2.20;2.10;;;;;;;;;;5114802;28;20199;-78
2023/07/31 01:07:40;;;;;;;2.97;2.33;;;;;;;;;;5114100;28;20203;-78
2023/07/31 01:10:12;;;;;;;5.97;2.63;;;;;;;;;;5114762;28;20577;-78
2023/07/31 01:12:39;;;;;;;2.30;2.20;;;;;;;;;;5114909;28;20665;-78
2023/07/31 01:15:10;;;;;;;3.77;2.90;;;;;;;;;;5114817;28;20268;-78
2023/07/31 01:17:37;;;;;;;3.70;3.40;;;;;;;;;;5115114;28;20199;-78
2023/07/31 01:20:09;;;;;;;3.53;3.23;;;;;;;;;;5115679;28;20223;-78
2023/07/31 01:23:15;;;;;;;3.50;3.30;;;;;;;;;;5115012;28;20248;-78
2023/07/31 01:26:01;;;;;;;3.23;3.03;;;;;;;;;;5094372;28;20196;-78
2023/07/31 01:28:35;;;;;;;3.73;3.43;;;;;;;;;;5094127;28;20232;-78
2023/07/31 01:31:03;;;;;;;3.80;3.00;;;;;;;;;;5093846;28;20211;-78
2023/07/31 01:33:30;;;;;;;4.53;4.23;;;;;;;;;;5094455;28;20195;-78
2023/07/31 01:35:57;;;;;;;4.87;4.20;;;;;;;;;;5094348;28;20264;-78
2023/07/31 01:38:24;;;;;;;4.00;3.60;;;;;;;;;;5094261;28;20571;-78
2023/07/31 01:40:53;;;;;;;3.97;3.60;;;;;;;;;;5093984;28;20578;-78
2023/07/31 01:43:21;;;;;;;3.40;3.10;;;;;;;;;;5094204;28;20196;-78
2023/07/31 01:45:48;;;;;;;4.00;3.70;;;;;;;;;;5093573;28;20739;-78
2023/07/31 01:48:14;;;;;;;4.03;3.77;;;;;;;;;;5094382;28;20246;-78
2023/07/31 01:50:41;;;;;;;4.80;3.97;;;;;;;;;;5094225;28;20196;-79
2023/07/31 01:53:08;;;;;;;3.83;3.63;;;;;;;;;;5093563;28;20220;-78
2023/07/31 01:55:35;;;;;;;4.43;4.13;;;;;;;;;;5093937;28;20200;-79
2023/07/31 01:58:01;;;;;;;4.63;4.33;;;;;;;;;;5094070;28;20209;-79
2023/07/31 02:00:29;;;;;;;10.60;5.27;;;;;;;;;;5093400;28;20215;-79
2023/07/31 02:02:56;;;;;;;5.37;4.97;;;;;;;;;;5093922;28;20569;-78
2023/07/31 02:05:23;;;;;;;5.53;5.10;;;;;;;;;;5093744;28;20570;-78
2023/07/31 02:07:50;;;;;;;6.00;5.30;;;;;;;;;;5094415;28;20201;-78
2023/07/31 02:10:16;;;;;;;7.03;6.33;;;;;;;;;;5093387;28;20196;-78
2023/07/31 02:12:43;;;;;;;7.53;6.63;;;;;;;;;;5093138;28;20192;-78
2023/07/31 02:15:10;;;;;;;6.80;6.23;;;;;;;;;;5093709;28;20204;-79
2023/07/31 02:17:39;;;;;;;6.67;6.17;;;;;;;;;;5093673;28;20199;-78
2023/07/31 02:20:07;;;;;;;5.50;5.00;;;;;;;;;;5092086;28;20216;-78
2023/07/31 02:22:33;;;;;;;6.07;5.30;;;;;;;;;;5093524;28;20314;-78
2023/07/31 02:25:00;;;;;;;6.80;6.30;;;;;;;;;;5093095;28;20218;-78
2023/07/31 02:27:27;;;;;;;5.90;5.50;;;;;;;;;;5093008;28;20620;-78
2023/07/31 02:29:54;;;;;;;6.70;6.10;;;;;;;;;;5093397;28;20202;-78
2023/07/31 02:32:21;;;;;;;12.77;7.17;;;;;;;;;;5092874;28;20200;-78
2023/07/31 02:34:49;;;;;;;6.97;6.37;;;;;;;;;;5092781;28;20200;-78
2023/07/31 02:37:16;;;;;;;7.73;7.13;;;;;;;;;;5092825;28;20196;-78
2023/07/31 02:39:43;;;;;;;8.87;6.50;;;;;;;;;;5093739;28;20227;-78
2023/07/31 02:42:09;;;;;;;6.70;6.10;;;;;;;;;;5092736;28;20207;-78
2023/07/31 02:44:36;;;;;;;6.60;6.10;;;;;;;;;;5092542;28;20192;-78
2023/07/31 02:47:04;;;;;;;6.93;6.33;;;;;;;;;;5093694;28;20200;-78
2023/07/31 02:49:30;;;;;;;6.97;6.40;;;;;;;;;;5092718;28;20230;-78
2023/07/31 02:51:58;;;;;;;7.43;5.10;;;;;;;;;;5092489;28;20285;-78
2023/07/31 02:54:26;;;;;;;5.80;5.30;;;;;;;;;;5093371;28;20212;-78
2023/07/31 02:56:52;;;;;;;4.93;4.63;;;;;;;;;;5112425;28;20195;-78
2023/07/31 02:59:19;;;;;;;5.10;4.60;;;;;;;;;;5113023;28;20272;-78
2023/07/31 03:01:46;;;;;;;4.27;3.90;;;;;;;;;;5113104;28;20206;-78
2023/07/31 03:04:13;;;;;;;5.70;4.00;;;;;;;;;;5113267;28;20192;-77
2023/07/31 03:06:40;;;;;;;3.63;3.33;;;;;;;;;;5113209;28;20592;-78
2023/07/31 03:09:08;;;;;;;5.83;3.67;;;;;;;;;;5112877;28;20600;-78
2023/07/31 03:11:34;;;;;;;6.33;4.00;;;;;;;;;;5112958;28;20198;-78
2023/07/31 03:14:01;;;;;;;3.57;3.23;;;;;;;;;;5112570;28;20210;-78
2023/07/31 03:16:28;;;;;;;7.80;4.10;;;;;;;;;;5112464;28;20207;-78
2023/07/31 03:18:55;;;;;;;7.93;5.67;;;;;;;;;;5112661;28;20199;-79
2023/07/31 03:21:22;;;;;;;8.67;5.87;;;;;;;;;;5100903;28;20196;-79
2023/07/31 03:23:48;;;;;;;5.47;5.07;;;;;;;;;;5091887;28;20200;-79
2023/07/31 03:26:16;;;;;;;8.03;5.93;;;;;;;;;;5091767;28;20208;-78
2023/07/31 03:28:43;;;;;;;6.63;6.03;;;;;;;;;;5092457;28;20204;-79
2023/07/31 03:31:11;;;;;;;5.63;5.23;;;;;;;;;;5092447;28;20203;-78
2023/07/31 03:33:38;;;;;;;6.93;4.50;;;;;;;;;;5091823;28;20282;-79
2023/07/31 03:36:05;;;;;;;5.27;3.90;;;;;;;;;;5112209;28;20231;-78
2023/07/31 03:38:32;;;;;;;5.10;4.50;;;;;;;;;;5112074;28;20199;-78
2023/07/31 03:40:59;;;;;;;4.03;3.63;;;;;;;;;;5112172;28;20223;-78
2023/07/31 03:43:27;;;;;;;4.20;3.40;;;;;;;;;;5092629;28;20192;-78
2023/07/31 03:45:54;;;;;;;3.03;2.83;;;;;;;;;;5092077;28;20211;-79
2023/07/31 03:48:21;;;;;;;4.60;3.37;;;;;;;;;;5091277;28;20200;-79
2023/07/31 03:50:48;;;;;;;3.57;2.77;;;;;;;;;;5100350;28;20193;-79
2023/07/31 03:53:15;;;;;;;3.27;3.07;;;;;;;;;;5092107;28;20224;-79
2023/07/31 03:55:43;;;;;;;4.37;3.47;;;;;;;;;;5106136;28;20249;-79
2023/07/31 03:58:09;;;;;;;3.10;2.87;;;;;;;;;;5098777;28;20673;-78
2023/07/31 04:00:37;;;;;;;3.13;2.83;;;;;;;;;;5111951;28;20607;-79
2023/07/31 04:03:04;;;;;;;3.67;3.03;;;;;;;;;;5112196;28;20290;-77
2023/07/31 04:05:32;;;;;;;4.27;3.87;;;;;;;;;;5112082;28;20195;-78
2023/07/31 04:07:59;;;;;;;4.80;3.20;;;;;;;;;;5112166;28;20207;-77
2023/07/31 04:10:27;;;;;;;5.30;3.70;;;;;;;;;;5112585;28;20207;-78
2023/07/31 04:12:54;;;;;;;5.00;3.40;;;;;;;;;;5111957;28;20195;-79
2023/07/31 04:15:21;;;;;;;5.40;4.67;;;;;;;;;;5111814;28;20196;-78
2023/07/31 04:17:49;;;;;;;5.33;4.50;;;;;;;;;;5112077;28;20680;-78
2023/07/31 04:20:18;;;;;;;5.63;4.10;;;;;;;;;;5111463;28;20213;-79
2023/07/31 04:22:45;;;;;;;6.20;5.00;;;;;;;;;;5112060;28;20191;-79
2023/07/31 04:25:12;;;;;;;6.17;4.37;;;;;;;;;;5111989;28;20210;-78
2023/07/31 04:27:38;;;;;;;6.97;4.50;;;;;;;;;;5111677;28;20200;-79
2023/07/31 04:30:07;;;;;;;6.67;4.87;;;;;;;;;;5112160;28;20199;-78
2023/07/31 04:32:35;;;;;;;12.07;5.33;;;;;;;;;;5112067;28;20199;-79
2023/07/31 04:35:07;;;;;;;7.50;5.70;;;;;;;;;;5111752;28;20590;-78
2023/07/31 04:37:33;;;;;;;5.90;5.30;;;;;;;;;;5090228;28;20200;-79
2023/07/31 04:40:00;;;;;;;5.40;4.90;;;;;;;;;;5090039;28;20224;-79
2023/07/31 04:42:27;;;;;;;5.17;4.77;;;;;;;;;;5098048;28;20254;-79
2023/07/31 04:44:54;;;;;;;5.20;4.70;;;;;;;;;;5100606;28;20197;-79
2023/07/31 04:47:20;;;;;;;4.83;4.40;;;;;;;;;;5103827;28;20196;-79
2023/07/31 04:49:47;;;;;;;5.30;4.80;;;;;;;;;;5107424;28;20204;-79
2023/07/31 04:52:15;;;;;;;4.60;3.80;;;;;;;;;;5103740;28;20229;-79
2023/07/31 04:54:42;;;;;;;4.20;3.80;;;;;;;;;;5102617;28;20203;-79
2023/07/31 04:57:09;;;;;;;6.40;3.80;;;;;;;;;;5103361;28;20632;-79
2023/07/31 04:59:36;;;;;;;4.20;3.90;;;;;;;;;;5107202;28;20196;-79
2023/07/31 05:02:04;;;;;;;4.30;3.90;;;;;;;;;;5094310;28;20196;-79
2023/07/31 05:04:31;;;;;;;4.73;4.33;;;;;;;;;;5113661;28;20204;-79
2023/07/31 05:06:58;;;;;;;4.50;4.10;;;;;;;;;;5100974;28;20200;-79
2023/07/31 05:09:28;;;;;;;4.80;4.40;;;;;;;;;;5107007;28;20199;-79
2023/07/31 05:11:55;;;;;;;5.90;4.20;;;;;;;;;;5107874;28;20188;-79
2023/07/31 05:14:21;;;;;;;5.33;4.63;;;;;;;;;;5113731;28;20273;-80
2023/07/31 05:16:48;;;;;;;4.67;3.97;;;;;;;;;;5100441;28;20196;-82
2023/07/31 05:19:15;;;;;;;4.73;4.33;;;;;;;;;;5107267;28;20215;-80
2023/07/31 05:21:42;;;;;;;5.40;5.00;;;;;;;;;;5107653;28;20583;-80
2023/07/31 05:24:08;;;;;;;4.80;4.40;;;;;;;;;;5106210;28;20199;-80
2023/07/31 05:26:37;;;;;;;5.37;4.87;;;;;;;;;;5107914;28;20264;-80
2023/07/31 05:29:04;;;;;;;5.17;4.77;;;;;;;;;;5093229;28;20200;-81
2023/07/31 05:31:32;;;;;;;6.10;5.17;;;;;;;;;;5093385;28;20204;-81
2023/07/31 05:33:59;;;;;;;8.03;4.53;;;;;;;;;;5104901;28;20207;-80
2023/07/31 05:36:25;;;;;;;6.03;5.00;;;;;;;;;;5105085;28;20210;-79
2023/07/31 05:38:52;;;;;;;4.83;4.33;;;;;;;;;;5101642;28;20678;-78
2023/07/31 05:41:19;;;;;;;6.90;5.13;;;;;;;;;;5111536;28;20306;-78
2023/07/31 05:43:47;;;;;;;7.07;5.20;;;;;;;;;;5093299;28;20618;-78
2023/07/31 05:46:14;;;;;;;5.20;4.77;;;;;;;;;;5093263;28;20212;-78
2023/07/31 05:48:41;;;;;;;5.87;5.00;;;;;;;;;;5101211;28;20198;-78
2023/07/31 05:51:08;;;;;;;5.67;5.17;;;;;;;;;;5097543;28;20200;-79
2023/07/31 05:53:35;;;;;;;5.43;4.53;;;;;;;;;;5103030;28;20224;-78
2023/07/31 05:56:02;;;;;;;5.27;4.87;;;;;;;;;;5106910;28;20275;-78
2023/07/31 05:58:29;;;;;;;5.53;5.03;;;;;;;;;;5092771;28;20682;-78
2023/07/31 06:00:57;;;;;;;5.83;5.30;;;;;;;;;;5092591;28;20215;-78
2023/07/31 06:03:24;;;;;;;5.20;4.80;;;;;;;;;;5103573;28;20555;-79
2023/07/31 06:05:51;;;;;;;5.67;4.93;;;;;;;;;;5112989;28;20202;-79
2023/07/31 06:08:19;;;;;;;8.83;4.90;;;;;;;;;;5101804;28;20196;-79
2023/07/31 06:10:46;;;;;;;6.97;5.23;;;;;;;;;;5098103;28;20195;-79
2023/07/31 06:13:13;;;;;;;7.37;4.80;;;;;;;;;;5112960;28;20203;-79
2023/07/31 06:15:40;;;;;;;5.70;5.20;;;;;;;;;;5112703;28;20199;-80
2023/07/31 06:18:08;;;;;;;6.30;5.70;;;;;;;;;;5112815;28;20203;-79
2023/07/31 06:20:35;;;;;;;7.13;4.97;;;;;;;;;;5102539;28;20253;-79
2023/07/31 06:23:02;;;;;;;6.00;5.50;;;;;;;;;;5112939;28;20202;-79
2023/07/31 06:25:29;;;;;;;6.67;6.17;;;;;;;;;;5106858;28;20608;-80
2023/07/31 06:27:55;;;;;;;5.87;5.33;;;;;;;;;;5092133;28;20253;-80
2023/07/31 06:30:23;;;;;;;6.13;5.63;;;;;;;;;;5107111;28;20670;-81
2023/07/31 06:32:50;;;;;;;6.47;5.70;;;;;;;;;;5092082;28;20232;-81
2023/07/31 06:35:18;;;;;;;6.10;5.57;;;;;;;;;;5110636;28;20192;-81
2023/07/31 06:37:45;;;;;;;6.37;5.80;;;;;;;;;;5098375;28;20200;-82
2023/07/31 06:40:12;;;;;;;7.00;6.40;;;;;;;;;;5099409;28;20202;-83
2023/07/31 06:42:39;;;;;;;7.57;6.10;;;;;;;;;;5112489;28;20199;-81
2023/07/31 06:45:07;;;;;;;7.10;6.50;;;;;;;;;;5104318;28;20203;-82
2023/07/31 06:47:34;;;;;;;8.17;6.07;;;;;;;;;;5091663;28;20247;-81
2023/07/31 06:50:01;;;;;;;6.40;6.00;;;;;;;;;;5099483;28;20203;-80
2023/07/31 06:52:29;;;;;;;6.20;5.67;;;;;;;;;;5112014;28;20628;-80
2023/07/31 06:55:04;;;;;;;6.40;5.90;;;;;;;;;;5092616;28;20200;-80
2023/07/31 06:57:30;;;;;;;6.70;6.10;;;;;;;;;;5106836;28;20199;-79
2023/07/31 06:59:57;;;;;;;6.70;5.93;;;;;;;;;;5102842;28;20200;-79
2023/07/31 07:02:24;;;;;;;6.23;5.73;;;;;;;;;;5091935;28;20219;-79
2023/07/31 07:04:51;;;;;;;16.23;6.50;;;;;;;;;;5100328;28;20203;-79
2023/07/31 07:07:18;;;;;;;6.50;5.80;;;;;;;;;;5097975;28;20204;-79
2023/07/31 07:09:46;;;;;;;5.83;5.37;;;;;;;;;;5103050;28;20201;-79
2023/07/31 07:12:13;;;;;;;6.10;5.47;;;;;;;;;;5091331;28;20199;-79
2023/07/31 07:14:39;;;;;;;6.50;6.00;;;;;;;;;;5091468;28;20686;-79
2023/07/31 07:17:07;;;;;;;6.43;5.93;;;;;;;;;;5108429;28;20188;-79
2023/07/31 07:19:33;;;;;;;7.13;6.43;;;;;;;;;;5103101;28;20280;-79
2023/07/31 07:22:01;;;;;;;7.90;6.70;;;;;;;;;;5105151;28;20220;-79
2023/07/31 07:24:28;;;;;;;7.20;6.50;;;;;;;;;;5091561;28;20612;-79
2023/07/31 07:26:56;;;;;;;7.43;6.53;;;;;;;;;;5095439;28;20192;-79
2023/07/31 07:29:23;;;;;;;6.73;6.23;;;;;;;;;;5111507;28;20196;-79
2023/07/31 07:31:50;;;;;;;8.23;6.93;;;;;;;;;;5093038;28;20192;-79
2023/07/31 07:34:17;;;;;;;8.53;6.63;;;;;;;;;;5102756;28;20206;-79
2023/07/31 07:36:44;;;;;;;7.70;6.63;;;;;;;;;;5106343;28;20189;-79
2023/07/31 07:39:12;;;;;;;7.17;6.17;;;;;;;;;;5101946;28;20199;-79
2023/07/31 07:41:38;;;;;;;7.60;7.10;;;;;;;;;;5095929;28;20220;-80
2023/07/31 07:44:07;;;;;;;7.90;7.30;;;;;;;;;;5103226;28;20610;-79
2023/07/31 07:46:33;;;;;;;7.63;7.00;;;;;;;;;;5105433;28;20207;-79
2023/07/31 07:49:00;;;;;;;7.57;6.97;;;;;;;;;;5091161;28;20207;-79
2023/07/31 07:51:27;;;;;;;7.60;7.00;;;;;;;;;;5110694;28;20203;-79
2023/07/31 07:53:54;;;;;;;9.17;7.57;;;;;;;;;;5111152;28;20192;-79
2023/07/31 07:56:21;;;;;;;8.10;7.50;;;;;;;;;;5111510;28;20188;-79
2023/07/31 07:58:50;;;;;;;7.63;6.90;;;;;;;;;;5098725;28;20200;-79
2023/07/31 08:01:19;;;;;;;8.20;7.60;;;;;;;;;;5090457;28;20261;-79
2023/07/31 08:03:46;;;;;;;7.50;7.00;;;;;;;;;;5104658;28;20196;-79
2023/07/31 08:06:13;;;;;;;9.70;6.87;;;;;;;;;;5104251;28;20196;-79
2023/07/31 08:08:40;;;;;;;8.50;7.80;;;;;;;;;;5104163;28;20211;-80
2023/07/31 08:11:07;;;;;;;7.57;6.97;;;;;;;;;;5098280;28;20206;-78
2023/07/31 08:13:34;;;;;;;8.70;7.37;;;;;;;;;;5097405;28;20203;-79
2023/07/31 08:16:00;;;;;;;11.03;10.23;;;;;;;;;;5103990;28;20199;-79
2023/07/31 08:18:28;;;;;;;19.13;17.63;;;;;;;;;;5106203;28;20199;-79
2023/07/31 08:20:55;;;;;;;10.87;9.97;;;;;;;;;;5103232;28;20222;-79
2023/07/31 08:23:22;;;;;;;9.13;8.17;;;;;;;;;;5113300;28;20202;-79
2023/07/31 08:25:50;;;;;;;9.10;7.90;;;;;;;;;;5101751;28;20192;-78
2023/07/31 08:28:19;;;;;;;8.97;8.10;;;;;;;;;;5099772;28;20290;-78
2023/07/31 08:30:46;;;;;;;7.93;7.13;;;;;;;;;;5102653;28;20653;-78
2023/07/31 08:33:13;;;;;;;8.57;7.87;;;;;;;;;;5111745;28;20200;-79
2023/07/31 08:35:41;;;;;;;8.33;7.50;;;;;;;;;;5094728;28;20193;-78
2023/07/31 08:38:08;;;;;;;9.87;8.97;;;;;;;;;;5109686;28;20232;-79
2023/07/31 08:40:37;;;;;;;7.97;7.37;;;;;;;;;;5094625;28;20651;-78
2023/07/31 08:43:04;;;;;;;9.90;9.00;;;;;;;;;;5096133;28;20274;-78
2023/07/31 08:45:31;;;;;;;10.00;9.20;;;;;;;;;;5103857;28;20204;-78
2023/07/31 08:47:58;;;;;;;9.43;8.47;;;;;;;;;;5093883;28;20215;-78
2023/07/31 08:50:25;;;;;;;8.73;8.03;;;;;;;;;;5104973;28;20195;-78
2023/07/31 08:52:53;;;;;;;9.30;8.50;;;;;;;;;;5110323;28;20281;-78
2023/07/31 08:55:24;;;;;;;8.37;7.67;;;;;;;;;;5094049;28;20231;-78
2023/07/31 08:57:52;;;;;;;8.90;8.20;;;;;;;;;;5093665;28;20196;-78
2023/07/31 09:00:23;;;;;;;8.63;7.93;;;;;;;;;;5105445;28;20881;-78
2023/07/31 09:02:55;;;;;;;8.97;8.17;;;;;;;;;;5114026;28;20589;-78
2023/07/31 09:05:23;;;;;;;8.70;8.00;;;;;;;;;;5100893;28;20665;-79
2023/07/31 09:07:51;;;;;;;8.17;7.57;;;;;;;;;;5106683;28;20208;-77
2023/07/31 09:10:19;;;;;;;7.97;7.27;;;;;;;;;;5105898;28;20244;-77
2023/07/31 09:12:47;;;;;;;8.30;7.57;;;;;;;;;;5100409;28;20203;-77
2023/07/31 09:15:14;;;;;;;7.97;7.30;;;;;;;;;;5112472;28;20223;-78
2023/07/31 09:17:41;;;;;;;7.83;7.23;;;;;;;;;;5094021;28;20275;-77
2023/07/31 09:20:15;;;;;;;8.57;7.97;;;;;;;;;;5107435;28;20196;-77
2023/07/31 09:22:42;;;;;;;9.03;8.33;;;;;;;;;;5103820;28;20309;-77
2023/07/31 09:25:18;;;;;;;8.60;7.90;;;;;;;;;;5096984;28;20200;-77
2023/07/31 09:27:51;;;;;;;7.27;6.77;;;;;;;;;;5103743;28;20200;-77
2023/07/31 09:30:19;;;;;;;8.17;7.37;;;;;;;;;;5110196;28;20204;-77
2023/07/31 09:32:47;;;;;;;8.07;7.47;;;;;;;;;;5106607;28;20557;-77
2023/07/31 09:35:19;;;;;;;7.87;7.17;;;;;;;;;;5113413;28;20229;-77
2023/07/31 09:37:50;;;;;;;6.10;5.60;;;;;;;;;;5099937;28;20192;-77
2023/07/31 09:40:27;;;;;;;6.53;6.13;;;;;;;;;;5105022;28;20199;-77
2023/07/31 09:42:56;;;;;;;6.43;5.82;;;;;;;;;;5107086;28;20305;-77
2023/07/31 09:45:23;;;;;;;6.83;6.13;;;;;;;;;;5093098;28;20192;-76
2023/07/31 09:47:50;;;;;;;6.33;5.87;;;;;;;;;;5108717;28;20700;-76
2023/07/31 09:50:17;;;;;;;6.50;6.00;;;;;;;;;;5113758;28;20202;-77
2023/07/31 09:52:44;;;;;;;6.97;6.37;;;;;;;;;;5098893;28;20224;-77
2023/07/31 09:55:11;;;;;;;6.93;6.33;;;;;;;;;;5092920;28;20188;-77
2023/07/31 09:57:40;;;;;;;7.03;6.43;;;;;;;;;;5095878;28;20199;-77
2023/07/31 10:00:10;;;;;;;6.50;6.00;;;;;;;;;;5103902;28;20269;-77
2023/07/31 10:02:38;;;;;;;7.20;6.50;;;;;;;;;;5105581;28;20690;-77
2023/07/31 10:05:06;;;;;;;6.23;5.83;;;;;;;;;;5104075;28;20203;-77
2023/07/31 10:07:37;;;;;;;7.60;6.77;;;;;;;;;;5099313;28;20188;-76
2023/07/31 10:10:05;;;;;;;7.50;6.53;;;;;;;;;;5103365;28;20226;-77
2023/07/31 10:12:34;;;;;;;5.27;4.87;;;;;;;;;;5111986;28;20252;-77
2023/07/31 10:15:01;;;;;;;5.70;5.30;;;;;;;;;;5113205;28;20232;-77
2023/07/31 10:17:30;;;;;;;5.63;5.23;;;;;;;;;;5108037;28;20674;-77
2023/07/31 10:19:59;;;;;;;6.00;5.50;;;;;;;;;;5092400;28;20582;-78
2023/07/31 10:22:28;;;;;;;5.90;5.30;;;;;;;;;;5105130;28;20228;-77
2023/07/31 10:24:56;;;;;;;9.13;5.63;;;;;;;;;;5105751;28;20199;-77
2023/07/31 10:27:23;;;;;;;5.32;4.85;;;;;;;;;;5098392;28;20195;-76
2023/07/31 10:29:50;;;;;;;6.30;5.67;;;;;;;;;;5098566;28;20204;-77
2023/07/31 10:32:20;;;;;;;5.72;5.22;;;;;;;;;;5099821;28;20199;-77
2023/07/31 10:34:49;;;;;;;5.03;4.63;;;;;;;;;;5098899;28;20629;-77
2023/07/31 10:37:21;;;;;;;4.57;4.17;;;;;;;;;;5101460;28;20195;-77
2023/07/31 10:39:56;;;;;;;6.33;4.70;;;;;;;;;;5109982;28;20278;-77
2023/07/31 10:42:29;;;;;;;4.70;4.30;;;;;;;;;;5103176;28;20215;-77
2023/07/31 10:44:58;;;;;;;5.20;4.70;;;;;;;;;;5099027;28;20358;-77
2023/07/31 10:47:27;;;;;;;4.72;4.32;;;;;;;;;;5099476;28;20192;-77
2023/07/31 10:50:12;;;;;;;4.18;3.88;;;;;;;;;;5091992;28;20223;-77
2023/07/31 10:52:38;;;;;;;4.70;4.30;;;;;;;;;;5107344;28;20215;-77
2023/07/31 10:55:16;;;;;;;4.47;4.18;;;;;;;;;;5112473;28;20219;-78
2023/07/31 10:57:46;;;;;;;4.78;4.47;;;;;;;;;;5111833;28;20237;-78
2023/07/31 11:00:20;;;;;;;5.38;4.97;;;;;;;;;;5112236;28;20234;-77
2023/07/31 11:02:58;;;;;;;4.82;4.43;;;;;;;;;;5111794;28;20297;-77
2023/07/31 11:05:47;;;;;;;5.07;4.68;;;;;;;;;;5112058;28;20217;-77
2023/07/31 11:08:16;;;;;;;5.10;4.70;;;;;;;;;;5101488;28;20207;-77
2023/07/31 11:10:43;;;;;;;4.05;3.65;;;;;;;;;;5107875;28;20673;-77
2023/07/31 11:13:10;;;;;;;5.47;4.55;;;;;;;;;;5111631;28;20195;-77
2023/07/31 11:15:37;;;;;;;5.05;4.68;;;;;;;;;;5098607;28;20203;-77
2023/07/31 11:18:05;;;;;;;5.00;4.60;;;;;;;;;;5101218;28;20616;-77
2023/07/31 11:20:32;;;;;;;5.15;4.70;;;;;;;;;;5096649;28;20199;-77
2023/07/31 11:23:02;;;;;;;5.65;5.15;;;;;;;;;;5100054;28;20298;-77
2023/07/31 11:25:30;;;;;;;4.78;4.45;;;;;;;;;;5096595;28;20195;-77
2023/07/31 11:27:57;;;;;;;5.78;3.92;;;;;;;;;;5100740;28;20673;-76
2023/07/31 11:30:23;;;;;;;5.00;4.50;;;;;;;;;;5091363;28;20193;-77
2023/07/31 11:32:51;;;;;;;4.82;4.47;;;;;;;;;;5104111;28;20200;-77
2023/07/31 11:35:18;;;;;;;4.75;4.43;;;;;;;;;;5097568;28;20223;-77
2023/07/31 11:37:45;;;;;;;4.40;4.10;;;;;;;;;;5098351;28;20200;-77
2023/07/31 11:40:13;;;;;;;8.98;4.88;;;;;;;;;;5091475;28;20235;-76
2023/07/31 11:42:40;;;;;;;5.35;4.78;;;;;;;;;;5104206;28;20222;-77
2023/07/31 11:45:08;;;;;;;4.88;4.43;;;;;;;;;;5111061;28;20726;-77
2023/07/31 11:47:36;;;;;;;4.30;4.00;;;;;;;;;;5097535;28;20559;-77
2023/07/31 11:50:04;;;;;;;5.03;4.55;;;;;;;;;;5110607;28;20218;-78
2023/07/31 11:52:32;;;;;;;4.68;4.32;;;;;;;;;;5110644;28;20235;-77
2023/07/31 11:55:00;;;;;;;11.15;5.20;;;;;;;;;;5104168;28;20200;-77
2023/07/31 11:57:29;;;;;;;4.80;4.40;;;;;;;;;;5105827;28;20692;-77
2023/07/31 11:59:56;;;;;;;5.10;4.40;;;;;;;;;;5111590;28;20213;-77
2023/07/31 12:02:23;;;;;;;4.07;3.78;;;;;;;;;;5108996;28;20227;-77
2023/07/31 12:04:50;;;;;;;4.95;4.55;;;;;;;;;;5099638;28;20674;-77
2023/07/31 12:07:17;;;;;;;4.82;4.30;;;;;;;;;;5110889;28;20673;-77
2023/07/31 12:09:53;;;;;;;4.75;4.35;;;;;;;;;;5111585;28;20199;-77
2023/07/31 12:12:21;;;;;;;7.03;4.65;;;;;;;;;;5097028;28;20252;-77
2023/07/31 12:14:50;;;;;;;4.45;4.10;;;;;;;;;;5111110;28;20195;-77
2023/07/31 12:17:18;;;;;;;4.70;4.18;;;;;;;;;;5108357;28;20202;-77
2023/07/31 12:19:45;;;;;;;5.28;4.88;;;;;;;;;;5090941;28;20261;-77
2023/07/31 12:22:12;;;;;;;6.70;6.03;;;;;;;;;;5094550;28;20242;-77
2023/07/31 12:24:40;;;;;;;7.55;6.95;;;;;;;;;;5110975;28;20200;-77
2023/07/31 12:27:10;;;;;;;7.70;7.00;;;;;;;;;;5099031;28;20203;-77
2023/07/31 12:29:37;;;;;;;8.38;7.53;;;;;;;;;;5098201;28;20618;-77
2023/07/31 12:32:06;;;;;;;5.20;4.80;;;;;;;;;;5104395;28;20569;-77
2023/07/31 12:34:43;;;;;;;7.57;7.05;;;;;;;;;;5102573;28;20674;-77
2023/07/31 12:37:10;;;;;;;8.35;7.65;;;;;;;;;;5102799;28;20204;-77
2023/07/31 12:39:39;;;;;;;9.05;8.15;;;;;;;;;;5102522;28;20686;-77
2023/07/31 12:42:07;;;;;;;8.07;7.47;;;;;;;;;;5098545;28;20741;-78
2023/07/31 12:44:33;;;;;;;7.15;6.55;;;;;;;;;;5111167;28;20199;-77
2023/07/31 12:47:00;;;;;;;6.47;5.88;;;;;;;;;;5101866;28;20603;-77
2023/07/31 12:49:28;;;;;;;5.63;5.05;;;;;;;;;;5093323;28;20279;-77
2023/07/31 12:51:55;;;;;;;5.43;4.93;;;;;;;;;;5103357;28;20232;-77
2023/07/31 12:54:22;;;;;;;4.28;3.88;;;;;;;;;;5104558;28;20353;-77
2023/07/31 12:56:49;;;;;;;6.00;4.20;;;;;;;;;;5099516;28;20210;-77
2023/07/31 12:59:15;;;;;;;4.53;3.83;;;;;;;;;;5096365;28;20207;-77
2023/07/31 13:01:42;;;;;;;4.93;4.53;;;;;;;;;;5103431;28;20203;-77
2023/07/31 13:04:09;;;;;;;6.68;6.18;;;;;;;;;;5109771;28;20219;-78
2023/07/31 13:06:37;;;;;;;5.63;3.72;;;;;;;;;;5114932;28;20207;-77
2023/07/31 13:09:04;;;;;;;5.93;4.82;;;;;;;;;;5097356;28;20200;-77
2023/07/31 13:11:31;;;;;;;3.95;3.45;;;;;;;;;;5105273;28;20206;-77
2023/07/31 13:13:57;;;;;;;4.82;3.90;;;;;;;;;;5109512;28;20204;-78
2023/07/31 13:16:24;;;;;;;3.80;3.50;;;;;;;;;;5105232;28;20199;-77
2023/07/31 13:18:53;;;;;;;4.28;3.67;;;;;;;;;;5108758;28;20196;-77
2023/07/31 13:21:21;;;;;;;4.10;3.70;;;;;;;;;;5105560;28;20264;-77
2023/07/31 13:23:49;;;;;;;4.03;3.72;;;;;;;;;;5107949;28;20246;-78
2023/07/31 13:26:16;;;;;;;7.30;6.68;;;;;;;;;;5105243;28;20195;-78
2023/07/31 13:28:43;;;;;;;8.95;8.07;;;;;;;;;;5099695;28;20187;-77
2023/07/31 13:31:11;;;;;;;9.68;8.70;;;;;;;;;;5112216;28;20198;-78
2023/07/31 13:33:37;;;;;;;9.45;8.63;;;;;;;;;;5100047;28;20249;-77
2023/07/31 13:36:04;;;;;;;9.02;7.97;;;;;;;;;;5100563;28;20200;-77
2023/07/31 13:38:31;;;;;;;9.27;8.48;;;;;;;;;;5100070;28;20244;-78
2023/07/31 13:40:59;;;;;;;9.80;8.90;;;;;;;;;;5113645;28;20192;-77
2023/07/31 13:43:26;;;;;;;9.17;8.40;;;;;;;;;;5093173;28;20216;-77
2023/07/31 13:45:53;;;;;;;9.18;8.35;;;;;;;;;;5107187;28;20191;-78
2023/07/31 13:48:20;;;;;;;8.53;7.83;;;;;;;;;;5094619;28;20200;-78
2023/07/31 13:50:46;;;;;;;8.50;7.80;;;;;;;;;;5093171;28;20192;-77
2023/07/31 13:53:13;;;;;;;8.60;7.97;;;;;;;;;;5099796;28;20223;-77
2023/07/31 13:55:40;;;;;;;7.90;7.23;;;;;;;;;;5113713;28;20200;-77
2023/07/31 13:58:08;;;;;;;7.33;6.63;;;;;;;;;;5113091;28;20196;-77
2023/07/31 14:00:36;;;;;;;7.73;6.97;;;;;;;;;;5099468;28;20204;-77
2023/07/31 14:03:02;;;;;;;5.80;5.30;;;;;;;;;;5092828;28;20227;-77
2023/07/31 14:05:29;;;;;;;8.10;6.20;;;;;;;;;;5107240;28;20192;-78
2023/07/31 14:07:56;;;;;;;5.30;4.90;;;;;;;;;;5113659;28;20195;-77
2023/07/31 14:10:22;;;;;;;5.83;5.33;;;;;;;;;;5100191;28;20265;-77
2023/07/31 14:12:49;;;;;;;6.50;5.90;;;;;;;;;;5112535;28;20253;-77
2023/07/31 14:15:19;;;;;;;5.80;5.30;;;;;;;;;;5099401;28;20200;-78
2023/07/31 14:17:45;;;;;;;5.25;4.80;;;;;;;;;;5112711;28;20188;-77
2023/07/31 14:20:13;;;;;;;5.50;5.07;;;;;;;;;;5112144;28;20202;-77
2023/07/31 14:22:40;;;;;;;5.60;5.03;;;;;;;;;;5112879;28;20204;-80
2023/07/31 14:25:10;;;;;;;5.60;5.13;;;;;;;;;;5099065;28;20253;-78
2023/07/31 14:27:36;;;;;;;5.30;4.80;;;;;;;;;;5103310;28;20257;-78
2023/07/31 14:30:03;;;;;;;5.30;4.90;;;;;;;;;;5105705;28;20188;-78
2023/07/31 14:32:32;;;;;;;12.23;6.07;;;;;;;;;;5102374;28;20217;-78
2023/07/31 14:34:59;;;;;;;4.80;4.30;;;;;;;;;;5098970;28;20198;-77
2023/07/31 14:37:27;;;;;;;7.23;4.93;;;;;;;;;;5101668;28;20658;-78
2023/07/31 14:39:54;;;;;;;4.97;4.57;;;;;;;;;;5092024;28;20200;-77
2023/07/31 14:42:21;;;;;;;5.90;5.40;;;;;;;;;;5103895;28;20234;-78
2023/07/31 14:44:48;;;;;;;5.17;4.77;;;;;;;;;;5099180;28;20215;-78
2023/07/31 14:47:14;;;;;;;5.40;5.00;;;;;;;;;;5101534;28;20712;-78